sensor_id;sensor_type;location;lat;lon;timestamp;temperature;humidity
18721;DHT22;9489;50.948;3.114;2023-03-14T00:01:23;10.60;99.90
18721;DHT22;9489;50.948;3.114;2023-03-14T00:03:50;10.50;99.90
18721;DHT22;9489;50.948;3.114;2023-03-14T00:06:16;10.50;99.90
18721;DHT22;9489;50.948;3.114;2023-03-14T00:08:43;10.40;99.90
18721;DHT22;9489;50.948;3.114;2023-03-14T00:11:12;10.40;99.90
18721;DHT22;9489;50.948;3.114;2023-03-14T00:13:38;10.30;99.90
18721;DHT22;9489;50.948;3.114;2023-03-14T00:16:06;10.30;99.90
18721;DHT22;9489;50.948;3.114;2023-03-14T00:18:32;10.30;99.90
18721;DHT22;9489;50.948;3.114;2023-03-14T00:21:02;10.30;99.90
18721;DHT22;9489;50.948;3.114;2023-03-14T00:23:29;10.30;99.90
18721;DHT22;9489;50.948;3.114;2023-03-14T00:26:00;10.30;99.90
18721;DHT22;9489;50.948;3.114;2023-03-14T00:28:26;10.40;99.90
18721;DHT22;9489;50.948;3.114;2023-03-14T00:30:52;10.40;99.90
18721;DHT22;9489;50.948;3.114;2023-03-14T00:33:17;10.40;99.90
18721;DHT22;9489;50.948;3.114;2023-03-14T00:35:43;10.40;99.90
18721;DHT22;9489;50.948;3.114;2023-03-14T00:38:09;10.50;99.90
18721;DHT22;9489;50.948;3.114;2023-03-14T00:40:39;10.50;99.90
18721;DHT22;9489;50.948;3.114;2023-03-14T00:43:04;10.50;99.90
18721;DHT22;9489;50.948;3.114;2023-03-14T00:45:30;10.50;99.90
18721;DHT22;9489;50.948;3.114;2023-03-14T00:47:56;10.50;99.90
18721;DHT22;9489;50.948;3.114;2023-03-14T00:50:21;10.50;99.90
18721;DHT22;9489;50.948;3.114;2023-03-14T00:52:47;10.50;99.90
18721;DHT22;9489;50.948;3.114;2023-03-14T00:55:14;10.50;99.90
18721;DHT22;9489;50.948;3.114;2023-03-14T00:57:39;10.40;99.90
18721;DHT22;9489;50.948;3.114;2023-03-14T01:00:05;10.40;99.90
18721;DHT22;9489;50.948;3.114;2023-03-14T01:02:33;10.40;99.90
18721;DHT22;9489;50.948;3.114;2023-03-14T01:04:59;10.40;99.90
18721;DHT22;9489;50.948;3.114;2023-03-14T01:07:24;10.40;99.90
18721;DHT22;9489;50.948;3.114;2023-03-14T01:09:52;10.50;99.90
18721;DHT22;9489;50.948;3.114;2023-03-14T01:12:18;10.50;99.90
18721;DHT22;9489;50.948;3.114;2023-03-14T01:14:43;10.60;99.90
18721;DHT22;9489;50.948;3.114;2023-03-14T01:17:09;10.60;99.90
18721;DHT22;9489;50.948;3.114;2023-03-14T01:19:34;10.60;99.90
18721;DHT22;9489;50.948;3.114;2023-03-14T01:22:00;10.60;99.90
18721;DHT22;9489;50.948;3.114;2023-03-14T01:24:25;10.60;99.90
18721;DHT22;9489;50.948;3.114;2023-03-14T01:26:51;10.70;99.90
18721;DHT22;9489;50.948;3.114;2023-03-14T01:29:17;10.70;99.90
18721;DHT22;9489;50.948;3.114;2023-03-14T01:31:42;10.70;99.90
18721;DHT22;9489;50.948;3.114;2023-03-14T01:34:08;10.70;99.90
18721;DHT22;9489;50.948;3.114;2023-03-14T01:36:33;10.70;99.90
18721;DHT22;9489;50.948;3.114;2023-03-14T01:38:59;10.70;99.90
18721;DHT22;9489;50.948;3.114;2023-03-14T01:41:26;10.70;99.90
18721;DHT22;9489;50.948;3.114;2023-03-14T01:43:52;10.70;99.90
18721;DHT22;9489;50.948;3.114;2023-03-14T01:46:19;10.70;99.90
18721;DHT22;9489;50.948;3.114;2023-03-14T01:48:53;10.80;99.90
18721;DHT22;9489;50.948;3.114;2023-03-14T01:54:12;10.70;99.90
18721;DHT22;9489;50.948;3.114;2023-03-14T01:56:40;10.70;99.90
18721;DHT22;9489;50.948;3.114;2023-03-14T01:59:08;10.70;99.90
18721;DHT22;9489;50.948;3.114;2023-03-14T02:01:34;10.70;99.90
18721;DHT22;9489;50.948;3.114;2023-03-14T02:04:02;10.70;99.90
18721;DHT22;9489;50.948;3.114;2023-03-14T02:07:00;10.70;99.90
18721;DHT22;9489;50.948;3.114;2023-03-14T02:09:28;10.60;99.90
18721;DHT22;9489;50.948;3.114;2023-03-14T02:11:55;10.60;99.90
18721;DHT22;9489;50.948;3.114;2023-03-14T02:14:35;10.60;99.90
18721;DHT22;9489;50.948;3.114;2023-03-14T02:17:03;10.60;99.90
18721;DHT22;9489;50.948;3.114;2023-03-14T02:22:12;10.50;99.90
18721;DHT22;9489;50.948;3.114;2023-03-14T02:27:13;10.40;99.90
18721;DHT22;9489;50.948;3.114;2023-03-14T02:32:21;10.40;99.90
18721;DHT22;9489;50.948;3.114;2023-03-14T02:34:52;10.40;99.90
18721;DHT22;9489;50.948;3.114;2023-03-14T02:37:21;10.30;99.90
18721;DHT22;9489;50.948;3.114;2023-03-14T02:39:49;10.30;99.90
18721;DHT22;9489;50.948;3.114;2023-03-14T02:42:16;10.30;99.90
18721;DHT22;9489;50.948;3.114;2023-03-14T02:44:53;10.30;99.90
18721;DHT22;9489;50.948;3.114;2023-03-14T02:47:25;10.30;99.90
18721;DHT22;9489;50.948;3.114;2023-03-14T02:49:55;10.30;99.90
18721;DHT22;9489;50.948;3.114;2023-03-14T02:52:23;10.30;99.90
18721;DHT22;9489;50.948;3.114;2023-03-14T02:54:49;10.30;99.90
18721;DHT22;9489;50.948;3.114;2023-03-14T02:57:14;10.20;99.90
18721;DHT22;9489;50.948;3.114;2023-03-14T02:59:40;10.30;99.90
18721;DHT22;9489;50.948;3.114;2023-03-14T03:02:06;10.30;99.90
18721;DHT22;9489;50.948;3.114;2023-03-14T03:04:31;10.30;99.90
18721;DHT22;9489;50.948;3.114;2023-03-14T03:06:57;10.20;99.90
18721;DHT22;9489;50.948;3.114;2023-03-14T03:09:22;10.30;99.90
18721;DHT22;9489;50.948;3.114;2023-03-14T03:11:48;10.30;99.90
18721;DHT22;9489;50.948;3.114;2023-03-14T03:14:13;10.30;99.90
18721;DHT22;9489;50.948;3.114;2023-03-14T03:16:39;10.30;99.90
18721;DHT22;9489;50.948;3.114;2023-03-14T03:19:05;10.30;99.90
18721;DHT22;9489;50.948;3.114;2023-03-14T03:21:30;10.30;99.90
18721;DHT22;9489;50.948;3.114;2023-03-14T03:23:56;10.30;99.90
18721;DHT22;9489;50.948;3.114;2023-03-14T03:26:21;10.30;99.90
18721;DHT22;9489;50.948;3.114;2023-03-14T03:28:49;10.40;99.90
18721;DHT22;9489;50.948;3.114;2023-03-14T03:31:15;10.30;99.90
18721;DHT22;9489;50.948;3.114;2023-03-14T03:33:41;10.40;99.90
18721;DHT22;9489;50.948;3.114;2023-03-14T03:36:07;10.40;99.90
18721;DHT22;9489;50.948;3.114;2023-03-14T03:38:33;10.30;99.90
18721;DHT22;9489;50.948;3.114;2023-03-14T03:41:02;10.30;99.90
18721;DHT22;9489;50.948;3.114;2023-03-14T03:43:28;10.30;99.90
18721;DHT22;9489;50.948;3.114;2023-03-14T03:45:53;10.30;99.90
18721;DHT22;9489;50.948;3.114;2023-03-14T03:48:20;10.30;99.90
18721;DHT22;9489;50.948;3.114;2023-03-14T03:50:46;10.30;99.90
18721;DHT22;9489;50.948;3.114;2023-03-14T03:53:12;10.30;99.90
18721;DHT22;9489;50.948;3.114;2023-03-14T03:55:41;10.30;99.90
18721;DHT22;9489;50.948;3.114;2023-03-14T03:58:07;10.30;99.90
18721;DHT22;9489;50.948;3.114;2023-03-14T04:00:33;10.30;99.90
18721;DHT22;9489;50.948;3.114;2023-03-14T04:02:58;10.30;99.90
18721;DHT22;9489;50.948;3.114;2023-03-14T04:05:25;10.40;99.90
18721;DHT22;9489;50.948;3.114;2023-03-14T04:07:50;10.40;99.90
18721;DHT22;9489;50.948;3.114;2023-03-14T04:10:16;10.40;99.90
18721;DHT22;9489;50.948;3.114;2023-03-14T04:12:41;10.40;99.90
18721;DHT22;9489;50.948;3.114;2023-03-14T04:15:08;10.50;99.90
18721;DHT22;9489;50.948;3.114;2023-03-14T04:17:33;10.50;99.90
18721;DHT22;9489;50.948;3.114;2023-03-14T04:19:59;10.60;99.90
18721;DHT22;9489;50.948;3.114;2023-03-14T04:22:24;10.60;99.90
18721;DHT22;9489;50.948;3.114;2023-03-14T04:24:50;10.60;99.90
18721;DHT22;9489;50.948;3.114;2023-03-14T04:27:15;10.60;99.90
18721;DHT22;9489;50.948;3.114;2023-03-14T04:29:44;10.60;99.90
18721;DHT22;9489;50.948;3.114;2023-03-14T04:32:10;10.70;99.90
18721;DHT22;9489;50.948;3.114;2023-03-14T04:34:35;10.60;99.90
18721;DHT22;9489;50.948;3.114;2023-03-14T04:37:01;10.60;99.90
18721;DHT22;9489;50.948;3.114;2023-03-14T04:39:27;10.60;99.90
18721;DHT22;9489;50.948;3.114;2023-03-14T04:41:52;10.60;99.90
18721;DHT22;9489;50.948;3.114;2023-03-14T04:44:18;10.60;99.90
18721;DHT22;9489;50.948;3.114;2023-03-14T04:46:43;10.60;99.90
18721;DHT22;9489;50.948;3.114;2023-03-14T04:49:09;10.50;99.90
18721;DHT22;9489;50.948;3.114;2023-03-14T04:51:35;10.50;99.90
18721;DHT22;9489;50.948;3.114;2023-03-14T04:54:00;10.40;99.90
18721;DHT22;9489;50.948;3.114;2023-03-14T04:56:26;10.40;99.90
18721;DHT22;9489;50.948;3.114;2023-03-14T04:58:52;10.40;99.90
18721;DHT22;9489;50.948;3.114;2023-03-14T05:01:18;10.40;99.90
18721;DHT22;9489;50.948;3.114;2023-03-14T05:03:44;10.40;99.90
18721;DHT22;9489;50.948;3.114;2023-03-14T05:06:09;10.40;99.90
18721;DHT22;9489;50.948;3.114;2023-03-14T05:08:35;10.30;99.90
18721;DHT22;9489;50.948;3.114;2023-03-14T05:11:01;10.30;99.90
18721;DHT22;9489;50.948;3.114;2023-03-14T05:13:28;9.80;99.90
18721;DHT22;9489;50.948;3.114;2023-03-14T05:15:53;9.40;99.90
18721;DHT22;9489;50.948;3.114;2023-03-14T05:18:20;9.20;99.90
18721;DHT22;9489;50.948;3.114;2023-03-14T05:20:46;9.00;99.90
18721;DHT22;9489;50.948;3.114;2023-03-14T05:23:12;8.90;99.90
18721;DHT22;9489;50.948;3.114;2023-03-14T05:25:37;8.80;99.90
18721;DHT22;9489;50.948;3.114;2023-03-14T05:28:03;8.70;99.90
18721;DHT22;9489;50.948;3.114;2023-03-14T05:30:29;8.70;99.90
18721;DHT22;9489;50.948;3.114;2023-03-14T05:32:56;8.60;99.90
18721;DHT22;9489;50.948;3.114;2023-03-14T05:35:22;8.50;99.90
18721;DHT22;9489;50.948;3.114;2023-03-14T05:37:47;8.50;99.90
18721;DHT22;9489;50.948;3.114;2023-03-14T05:40:13;8.40;99.90
18721;DHT22;9489;50.948;3.114;2023-03-14T05:42:39;8.40;99.90
18721;DHT22;9489;50.948;3.114;2023-03-14T05:45:05;8.40;99.90
18721;DHT22;9489;50.948;3.114;2023-03-14T05:47:30;8.40;99.90
18721;DHT22;9489;50.948;3.114;2023-03-14T05:49:56;8.30;99.90
18721;DHT22;9489;50.948;3.114;2023-03-14T05:52:21;8.30;99.90
18721;DHT22;9489;50.948;3.114;2023-03-14T05:54:47;8.30;99.90
18721;DHT22;9489;50.948;3.114;2023-03-14T05:57:13;8.30;99.90
18721;DHT22;9489;50.948;3.114;2023-03-14T05:59:39;8.30;99.90
18721;DHT22;9489;50.948;3.114;2023-03-14T06:02:04;8.30;99.90
18721;DHT22;9489;50.948;3.114;2023-03-14T06:04:30;8.20;99.90
18721;DHT22;9489;50.948;3.114;2023-03-14T06:06:55;8.20;99.90
18721;DHT22;9489;50.948;3.114;2023-03-14T06:09:21;8.20;99.90
18721;DHT22;9489;50.948;3.114;2023-03-14T06:11:49;8.20;99.90
18721;DHT22;9489;50.948;3.114;2023-03-14T06:14:14;8.20;99.90
18721;DHT22;9489;50.948;3.114;2023-03-14T06:16:40;8.10;99.90
18721;DHT22;9489;50.948;3.114;2023-03-14T06:19:06;8.10;99.90
18721;DHT22;9489;50.948;3.114;2023-03-14T06:21:31;8.10;99.90
18721;DHT22;9489;50.948;3.114;2023-03-14T06:23:57;8.10;99.90
18721;DHT22;9489;50.948;3.114;2023-03-14T06:26:22;8.10;99.90
18721;DHT22;9489;50.948;3.114;2023-03-14T06:28:49;8.00;99.90
18721;DHT22;9489;50.948;3.114;2023-03-14T06:31:16;8.00;99.90
18721;DHT22;9489;50.948;3.114;2023-03-14T06:33:42;8.00;99.90
18721;DHT22;9489;50.948;3.114;2023-03-14T06:36:08;8.00;99.90
18721;DHT22;9489;50.948;3.114;2023-03-14T06:38:34;8.00;99.90
18721;DHT22;9489;50.948;3.114;2023-03-14T06:41:04;8.00;99.90
18721;DHT22;9489;50.948;3.114;2023-03-14T06:43:30;8.00;99.90
18721;DHT22;9489;50.948;3.114;2023-03-14T06:45:56;8.00;99.90
18721;DHT22;9489;50.948;3.114;2023-03-14T06:48:21;8.00;99.90
18721;DHT22;9489;50.948;3.114;2023-03-14T06:50:48;7.90;99.90
18721;DHT22;9489;50.948;3.114;2023-03-14T06:53:14;8.00;99.90
18721;DHT22;9489;50.948;3.114;2023-03-14T06:55:39;7.90;99.90
18721;DHT22;9489;50.948;3.114;2023-03-14T06:58:05;7.90;99.90
18721;DHT22;9489;50.948;3.114;2023-03-14T07:00:33;7.90;99.90
18721;DHT22;9489;50.948;3.114;2023-03-14T07:02:59;7.80;99.90
18721;DHT22;9489;50.948;3.114;2023-03-14T07:05:25;7.80;99.90
18721;DHT22;9489;50.948;3.114;2023-03-14T07:07:51;7.80;99.90
18721;DHT22;9489;50.948;3.114;2023-03-14T07:10:16;7.80;99.90
18721;DHT22;9489;50.948;3.114;2023-03-14T07:12:42;7.70;99.90
18721;DHT22;9489;50.948;3.114;2023-03-14T07:15:08;7.70;99.90
18721;DHT22;9489;50.948;3.114;2023-03-14T07:17:33;7.70;99.90
18721;DHT22;9489;50.948;3.114;2023-03-14T07:19:59;7.70;99.90
18721;DHT22;9489;50.948;3.114;2023-03-14T07:22:25;7.70;99.90
18721;DHT22;9489;50.948;3.114;2023-03-14T07:24:51;7.60;99.90
18721;DHT22;9489;50.948;3.114;2023-03-14T07:27:16;7.60;99.90
18721;DHT22;9489;50.948;3.114;2023-03-14T07:29:42;7.60;99.90
18721;DHT22;9489;50.948;3.114;2023-03-14T07:32:07;7.60;99.90
18721;DHT22;9489;50.948;3.114;2023-03-14T07:34:33;7.60;99.90
18721;DHT22;9489;50.948;3.114;2023-03-14T07:36:59;7.60;99.90
18721;DHT22;9489;50.948;3.114;2023-03-14T07:39:24;7.60;99.90
18721;DHT22;9489;50.948;3.114;2023-03-14T07:41:50;7.50;99.90
18721;DHT22;9489;50.948;3.114;2023-03-14T07:44:16;7.50;99.90
18721;DHT22;9489;50.948;3.114;2023-03-14T07:46:41;7.50;99.90
18721;DHT22;9489;50.948;3.114;2023-03-14T07:49:07;7.50;99.90
18721;DHT22;9489;50.948;3.114;2023-03-14T07:51:32;7.40;99.90
18721;DHT22;9489;50.948;3.114;2023-03-14T07:53:58;7.40;99.90
18721;DHT22;9489;50.948;3.114;2023-03-14T07:56:24;7.50;99.90
18721;DHT22;9489;50.948;3.114;2023-03-14T07:58:49;7.50;99.90
18721;DHT22;9489;50.948;3.114;2023-03-14T08:01:15;7.40;99.90
18721;DHT22;9489;50.948;3.114;2023-03-14T08:03:40;7.40;99.90
18721;DHT22;9489;50.948;3.114;2023-03-14T08:06:06;7.40;99.90
18721;DHT22;9489;50.948;3.114;2023-03-14T08:08:32;7.40;99.90
18721;DHT22;9489;50.948;3.114;2023-03-14T08:11:03;7.40;99.90
18721;DHT22;9489;50.948;3.114;2023-03-14T08:13:29;7.40;99.90
18721;DHT22;9489;50.948;3.114;2023-03-14T08:15:55;7.40;99.90
18721;DHT22;9489;50.948;3.114;2023-03-14T08:18:20;7.40;99.90
18721;DHT22;9489;50.948;3.114;2023-03-14T08:20:46;7.50;99.90
18721;DHT22;9489;50.948;3.114;2023-03-14T08:23:12;7.50;99.90
18721;DHT22;9489;50.948;3.114;2023-03-14T08:25:38;7.50;99.90
18721;DHT22;9489;50.948;3.114;2023-03-14T08:28:03;7.50;99.90
18721;DHT22;9489;50.948;3.114;2023-03-14T08:30:29;7.50;99.90
18721;DHT22;9489;50.948;3.114;2023-03-14T08:32:58;7.50;99.90
18721;DHT22;9489;50.948;3.114;2023-03-14T08:35:25;7.60;99.90
18721;DHT22;9489;50.948;3.114;2023-03-14T08:37:51;7.60;99.90
18721;DHT22;9489;50.948;3.114;2023-03-14T08:40:18;7.80;99.90
18721;DHT22;9489;50.948;3.114;2023-03-14T08:42:43;7.90;99.90
18721;DHT22;9489;50.948;3.114;2023-03-14T08:45:12;7.90;99.90
18721;DHT22;9489;50.948;3.114;2023-03-14T08:47:38;8.30;99.90
18721;DHT22;9489;50.948;3.114;2023-03-14T08:50:05;8.40;19.40
18721;DHT22;9489;50.948;3.114;2023-03-14T08:52:31;8.30;11.90
18721;DHT22;9489;50.948;3.114;2023-03-14T08:54:57;8.20;6.20
18721;DHT22;9489;50.948;3.114;2023-03-14T08:57:22;8.10;1.00
18721;DHT22;9489;50.948;3.114;2023-03-14T08:59:56;8.00;19.90
18721;DHT22;9489;50.948;3.114;2023-03-14T09:02:23;8.10;34.10
18721;DHT22;9489;50.948;3.114;2023-03-14T09:04:52;8.10;28.10
18721;DHT22;9489;50.948;3.114;2023-03-14T09:07:18;8.30;29.30
18721;DHT22;9489;50.948;3.114;2023-03-14T09:09:45;8.30;1.00
18721;DHT22;9489;50.948;3.114;2023-03-14T09:12:10;8.20;1.00
18721;DHT22;9489;50.948;3.114;2023-03-14T09:14:36;8.20;1.00
18721;DHT22;9489;50.948;3.114;2023-03-14T09:17:03;8.10;1.00
18721;DHT22;9489;50.948;3.114;2023-03-14T09:19:29;8.20;1.00
18721;DHT22;9489;50.948;3.114;2023-03-14T09:21:54;8.20;1.00
18721;DHT22;9489;50.948;3.114;2023-03-14T09:24:20;8.20;1.00
18721;DHT22;9489;50.948;3.114;2023-03-14T09:26:46;8.20;1.00
18721;DHT22;9489;50.948;3.114;2023-03-14T09:29:12;8.30;1.00
18721;DHT22;9489;50.948;3.114;2023-03-14T09:31:37;8.30;1.00
18721;DHT22;9489;50.948;3.114;2023-03-14T09:34:03;8.20;1.00
18721;DHT22;9489;50.948;3.114;2023-03-14T09:36:29;8.20;1.00
18721;DHT22;9489;50.948;3.114;2023-03-14T09:38:55;8.20;1.00
18721;DHT22;9489;50.948;3.114;2023-03-14T09:41:31;8.20;1.00
18721;DHT22;9489;50.948;3.114;2023-03-14T09:44:08;8.20;1.00
18721;DHT22;9489;50.948;3.114;2023-03-14T09:46:37;8.20;1.00
18721;DHT22;9489;50.948;3.114;2023-03-14T09:49:32;8.20;26.20
18721;DHT22;9489;50.948;3.114;2023-03-14T09:52:00;8.20;27.70
18721;DHT22;9489;50.948;3.114;2023-03-14T09:54:38;8.20;1.00
18721;DHT22;9489;50.948;3.114;2023-03-14T09:57:08;8.00;1.00
18721;DHT22;9489;50.948;3.114;2023-03-14T09:59:36;7.90;16.40
18721;DHT22;9489;50.948;3.114;2023-03-14T10:04:41;7.80;83.10
18721;DHT22;9489;50.948;3.114;2023-03-14T10:07:23;7.80;81.20
18721;DHT22;9489;50.948;3.114;2023-03-14T10:09:51;7.70;93.70
18721;DHT22;9489;50.948;3.114;2023-03-14T10:12:18;7.60;99.90
18721;DHT22;9489;50.948;3.114;2023-03-14T10:14:50;7.50;99.90
18721;DHT22;9489;50.948;3.114;2023-03-14T10:17:17;7.40;99.90
18721;DHT22;9489;50.948;3.114;2023-03-14T10:19:56;7.30;99.90
18721;DHT22;9489;50.948;3.114;2023-03-14T10:22:25;7.20;99.90
18721;DHT22;9489;50.948;3.114;2023-03-14T10:24:57;7.10;99.90
18721;DHT22;9489;50.948;3.114;2023-03-14T10:27:35;7.00;99.90
18721;DHT22;9489;50.948;3.114;2023-03-14T10:30:06;7.00;99.90
18721;DHT22;9489;50.948;3.114;2023-03-14T10:32:39;7.00;99.90
18721;DHT22;9489;50.948;3.114;2023-03-14T10:37:57;6.90;99.90
18721;DHT22;9489;50.948;3.114;2023-03-14T10:40:34;6.90;99.90
18721;DHT22;9489;50.948;3.114;2023-03-14T10:43:05;6.90;99.90
18721;DHT22;9489;50.948;3.114;2023-03-14T10:45:36;6.90;99.90
18721;DHT22;9489;50.948;3.114;2023-03-14T10:48:33;6.90;99.90
18721;DHT22;9489;50.948;3.114;2023-03-14T10:53:47;7.00;99.90
18721;DHT22;9489;50.948;3.114;2023-03-14T10:56:15;6.90;99.90
18721;DHT22;9489;50.948;3.114;2023-03-14T10:58:43;7.00;99.90
18721;DHT22;9489;50.948;3.114;2023-03-14T11:06:44;6.80;99.90
18721;DHT22;9489;50.948;3.114;2023-03-14T11:09:28;6.80;99.90
18721;DHT22;9489;50.948;3.114;2023-03-14T11:12:02;6.70;99.90
18721;DHT22;9489;50.948;3.114;2023-03-14T11:14:38;6.60;99.90
18721;DHT22;9489;50.948;3.114;2023-03-14T11:17:26;6.50;99.90
18721;DHT22;9489;50.948;3.114;2023-03-14T11:22:41;6.50;99.90
18721;DHT22;9489;50.948;3.114;2023-03-14T11:25:38;6.50;99.90
18721;DHT22;9489;50.948;3.114;2023-03-14T11:31:19;6.60;99.90
18721;DHT22;9489;50.948;3.114;2023-03-14T11:34:15;6.60;99.90
18721;DHT22;9489;50.948;3.114;2023-03-14T11:39:16;6.80;99.90
18721;DHT22;9489;50.948;3.114;2023-03-14T11:42:11;6.80;99.90
18721;DHT22;9489;50.948;3.114;2023-03-14T11:44:39;7.00;99.90
18721;DHT22;9489;50.948;3.114;2023-03-14T11:47:20;7.10;99.90
18721;DHT22;9489;50.948;3.114;2023-03-14T11:49:56;7.10;99.90
18721;DHT22;9489;50.948;3.114;2023-03-14T11:54:55;7.20;99.90
18721;DHT22;9489;50.948;3.114;2023-03-14T11:57:22;7.10;99.90
18721;DHT22;9489;50.948;3.114;2023-03-14T12:00:17;7.20;99.90
18721;DHT22;9489;50.948;3.114;2023-03-14T12:11:00;6.80;99.90
18721;DHT22;9489;50.948;3.114;2023-03-14T12:13:30;6.80;99.90
18721;DHT22;9489;50.948;3.114;2023-03-14T12:15:59;7.00;99.90
18721;DHT22;9489;50.948;3.114;2023-03-14T12:18:31;7.10;99.90
18721;DHT22;9489;50.948;3.114;2023-03-14T12:21:00;7.10;99.90
18721;DHT22;9489;50.948;3.114;2023-03-14T12:23:34;7.10;99.90
18721;DHT22;9489;50.948;3.114;2023-03-14T12:26:28;7.20;99.90
18721;DHT22;9489;50.948;3.114;2023-03-14T12:29:15;7.20;99.90
18721;DHT22;9489;50.948;3.114;2023-03-14T12:31:44;7.30;99.90
18721;DHT22;9489;50.948;3.114;2023-03-14T12:47:48;7.40;99.90
18721;DHT22;9489;50.948;3.114;2023-03-14T12:50:35;7.40;99.90
18721;DHT22;9489;50.948;3.114;2023-03-14T13:00:56;6.70;99.90
18721;DHT22;9489;50.948;3.114;2023-03-14T13:03:47;6.60;99.90
18721;DHT22;9489;50.948;3.114;2023-03-14T13:06:46;6.50;99.90
18721;DHT22;9489;50.948;3.114;2023-03-14T13:14:30;6.80;99.90
18721;DHT22;9489;50.948;3.114;2023-03-14T13:16:59;6.80;99.90
18721;DHT22;9489;50.948;3.114;2023-03-14T13:19:30;6.90;99.90
18721;DHT22;9489;50.948;3.114;2023-03-14T13:22:04;6.90;99.90
18721;DHT22;9489;50.948;3.114;2023-03-14T13:24:33;6.90;99.90
18721;DHT22;9489;50.948;3.114;2023-03-14T13:26:59;7.00;99.90
18721;DHT22;9489;50.948;3.114;2023-03-14T13:29:28;7.00;99.90
18721;DHT22;9489;50.948;3.114;2023-03-14T13:32:01;7.00;99.90
18721;DHT22;9489;50.948;3.114;2023-03-14T13:34:29;6.90;96.10
18721;DHT22;9489;50.948;3.114;2023-03-14T13:36:55;6.80;35.90
18721;DHT22;9489;50.948;3.114;2023-03-14T13:39:26;6.70;48.00
18721;DHT22;9489;50.948;3.114;2023-03-14T13:42:00;6.70;76.10
18721;DHT22;9489;50.948;3.114;2023-03-14T13:44:35;6.60;89.30
18721;DHT22;9489;50.948;3.114;2023-03-14T13:47:04;6.30;89.90
18721;DHT22;9489;50.948;3.114;2023-03-14T13:49:32;6.20;91.60
18721;DHT22;9489;50.948;3.114;2023-03-14T13:52:01;6.10;86.20
18721;DHT22;9489;50.948;3.114;2023-03-14T13:54:27;6.20;36.50
18721;DHT22;9489;50.948;3.114;2023-03-14T13:57:02;6.20;51.50
18721;DHT22;9489;50.948;3.114;2023-03-14T13:59:34;6.20;30.90
18721;DHT22;9489;50.948;3.114;2023-03-14T14:02:03;6.20;30.60
18721;DHT22;9489;50.948;3.114;2023-03-14T14:04:32;6.20;2.20
18721;DHT22;9489;50.948;3.114;2023-03-14T14:07:00;6.20;1.00
18721;DHT22;9489;50.948;3.114;2023-03-14T14:09:35;6.30;23.70
18721;DHT22;9489;50.948;3.114;2023-03-14T14:17:54;6.60;5.10
18721;DHT22;9489;50.948;3.114;2023-03-14T14:23:12;6.80;8.00
18721;DHT22;9489;50.948;3.114;2023-03-14T14:25:39;6.70;1.00
18721;DHT22;9489;50.948;3.114;2023-03-14T14:31:06;6.80;1.00
18721;DHT22;9489;50.948;3.114;2023-03-14T14:38:53;7.00;1.00
18721;DHT22;9489;50.948;3.114;2023-03-14T14:41:19;7.00;1.00
18721;DHT22;9489;50.948;3.114;2023-03-14T14:43:46;6.90;1.00
18721;DHT22;9489;50.948;3.114;2023-03-14T14:46:17;7.00;1.00
18721;DHT22;9489;50.948;3.114;2023-03-14T14:48:43;6.90;1.00
18721;DHT22;9489;50.948;3.114;2023-03-14T14:51:09;7.00;1.00
18721;DHT22;9489;50.948;3.114;2023-03-14T14:53:40;7.00;1.00
18721;DHT22;9489;50.948;3.114;2023-03-14T14:56:20;6.90;1.00
18721;DHT22;9489;50.948;3.114;2023-03-14T14:58:51;6.90;1.00
18721;DHT22;9489;50.948;3.114;2023-03-14T15:01:24;6.90;1.00
18721;DHT22;9489;50.948;3.114;2023-03-14T15:03:51;7.00;1.00
18721;DHT22;9489;50.948;3.114;2023-03-14T15:06:18;7.00;1.00
18721;DHT22;9489;50.948;3.114;2023-03-14T15:08:48;7.00;1.00
18721;DHT22;9489;50.948;3.114;2023-03-14T15:11:22;7.10;1.00
18721;DHT22;9489;50.948;3.114;2023-03-14T15:13:51;7.10;1.00
18721;DHT22;9489;50.948;3.114;2023-03-14T15:16:23;7.00;1.00
18721;DHT22;9489;50.948;3.114;2023-03-14T15:18:56;7.00;1.00
18721;DHT22;9489;50.948;3.114;2023-03-14T15:21:23;7.10;1.00
18721;DHT22;9489;50.948;3.114;2023-03-14T15:23:49;7.10;1.00
18721;DHT22;9489;50.948;3.114;2023-03-14T15:26:20;7.20;1.00
18721;DHT22;9489;50.948;3.114;2023-03-14T15:28:46;7.40;1.00
18721;DHT22;9489;50.948;3.114;2023-03-14T15:31:13;8.00;1.00
18721;DHT22;9489;50.948;3.114;2023-03-14T15:33:40;8.60;1.00
18721;DHT22;9489;50.948;3.114;2023-03-14T15:36:14;9.30;1.00
18721;DHT22;9489;50.948;3.114;2023-03-14T15:38:42;9.60;1.00
18721;DHT22;9489;50.948;3.114;2023-03-14T15:41:08;9.80;1.00
18721;DHT22;9489;50.948;3.114;2023-03-14T15:43:34;10.10;1.00
18721;DHT22;9489;50.948;3.114;2023-03-14T15:46:00;10.80;1.00
18721;DHT22;9489;50.948;3.114;2023-03-14T15:48:25;11.60;1.00
18721;DHT22;9489;50.948;3.114;2023-03-14T15:50:51;12.40;1.00
18721;DHT22;9489;50.948;3.114;2023-03-14T15:53:17;12.70;1.00
18721;DHT22;9489;50.948;3.114;2023-03-14T15:55:42;12.10;1.00
18721;DHT22;9489;50.948;3.114;2023-03-14T15:58:16;11.40;1.00
18721;DHT22;9489;50.948;3.114;2023-03-14T16:00:43;10.60;1.00
18721;DHT22;9489;50.948;3.114;2023-03-14T16:03:08;9.80;1.00
18721;DHT22;9489;50.948;3.114;2023-03-14T16:05:35;9.30;1.00
18721;DHT22;9489;50.948;3.114;2023-03-14T16:08:00;9.00;1.00
18721;DHT22;9489;50.948;3.114;2023-03-14T16:10:28;8.80;1.00
18721;DHT22;9489;50.948;3.114;2023-03-14T16:12:54;9.00;1.00
18721;DHT22;9489;50.948;3.114;2023-03-14T16:15:20;9.00;1.00
18721;DHT22;9489;50.948;3.114;2023-03-14T16:17:45;8.90;1.00
18721;DHT22;9489;50.948;3.114;2023-03-14T16:20:11;8.80;1.00
18721;DHT22;9489;50.948;3.114;2023-03-14T16:22:37;8.60;1.00
18721;DHT22;9489;50.948;3.114;2023-03-14T16:25:05;8.40;1.00
18721;DHT22;9489;50.948;3.114;2023-03-14T16:27:31;8.30;1.00
18721;DHT22;9489;50.948;3.114;2023-03-14T16:29:57;8.20;1.00
18721;DHT22;9489;50.948;3.114;2023-03-14T16:32:25;8.00;1.00
18721;DHT22;9489;50.948;3.114;2023-03-14T16:34:51;8.00;1.00
18721;DHT22;9489;50.948;3.114;2023-03-14T16:37:17;7.90;1.00
18721;DHT22;9489;50.948;3.114;2023-03-14T16:39:42;7.90;1.00
18721;DHT22;9489;50.948;3.114;2023-03-14T16:42:08;7.80;1.00
18721;DHT22;9489;50.948;3.114;2023-03-14T16:44:34;7.80;1.00
18721;DHT22;9489;50.948;3.114;2023-03-14T16:46:59;7.90;1.00
18721;DHT22;9489;50.948;3.114;2023-03-14T16:49:25;8.00;1.00
18721;DHT22;9489;50.948;3.114;2023-03-14T16:51:50;8.10;1.00
18721;DHT22;9489;50.948;3.114;2023-03-14T16:54:16;8.20;1.00
18721;DHT22;9489;50.948;3.114;2023-03-14T16:56:41;8.30;1.00
18721;DHT22;9489;50.948;3.114;2023-03-14T16:59:07;8.30;1.00
18721;DHT22;9489;50.948;3.114;2023-03-14T17:01:32;8.20;1.00
18721;DHT22;9489;50.948;3.114;2023-03-14T17:03:58;8.10;1.00
18721;DHT22;9489;50.948;3.114;2023-03-14T17:06:26;7.90;1.00
18721;DHT22;9489;50.948;3.114;2023-03-14T17:08:53;7.80;1.00
18721;DHT22;9489;50.948;3.114;2023-03-14T17:11:19;7.80;1.00
18721;DHT22;9489;50.948;3.114;2023-03-14T17:13:45;7.70;1.00
18721;DHT22;9489;50.948;3.114;2023-03-14T17:16:11;7.60;1.00
18721;DHT22;9489;50.948;3.114;2023-03-14T17:18:38;7.50;1.00
18721;DHT22;9489;50.948;3.114;2023-03-14T17:21:04;7.50;1.00
18721;DHT22;9489;50.948;3.114;2023-03-14T17:23:31;7.40;1.00
18721;DHT22;9489;50.948;3.114;2023-03-14T17:25:57;7.30;1.00
18721;DHT22;9489;50.948;3.114;2023-03-14T17:28:24;7.20;1.00
18721;DHT22;9489;50.948;3.114;2023-03-14T17:31:01;7.10;1.00
18721;DHT22;9489;50.948;3.114;2023-03-14T17:33:27;7.10;1.00